PILOTS ONLINE: 299    ATC ONLINE: 30

KBLH - Blythe Airport

Location

IATA BLH
City Blythe
Country  United States
Latitude 33° 37' 9" N
Longitude 114° 43' 1" W
Elevation 399 ft
Type Medium Airport

Runways

08/26 6543 ft / 150 ft
17/35 5800 ft / 100 ft

Weather

METAR
2014/07/22 22:52
KBLH 222252Z AUTO 29005KT 10SM FEW110 44/03 A2982 RMK AO2 SLP091 T04390033
TAF
2014/07/22 18:21
TAF KBLH 221720Z 2218/2318 VRB05KT P6SM SKC 
     FM222000 14007KT P6SM FEW250 
     FM230200 24007KT P6SM SCT250 
     FM231300 VRB05KT P6SM SCT250

Outbound flights

Inbound flights